Etusivu
METAR-TAF:

METAR-TAF

Lentoasemat :

Wiesbaden, Saksa

Leveyspiiri: 50-03N, Pituuspiiri: 008-20E, korkeus merenpinnasta: 140 m

Tämänhetkinen sää

Tämä raportti tehtiin 1 tunti ja 39 minuuttia sitten, kello 13.56 UTC
Tuuli 6 kn idästä/koillisesta
Lämpötila 16°C
Kosteus 27%
Ilmanpaine 1033 hPa
Näkyvyys 10 km tai enemmän
selkeää

METAR: ETOU 211356Z AUTO 07006KT 9999 CLR 16/M03 A3049 RMK AO2 SLP330 T01561029 $

Aika: 16:35 (15:35 UTC)

Sääennuste

Tämä raportti tehtiin 3 tuntia ja 31 minuuttia sitten, kello 12.04 UTC
Ennuste voimassa 21. päivästä klo 12 UTC - 22. päivään klo 18 UTC
Tuuli 6 kn eri suunnista
Näkyvyys 10 km tai enemmän
selkeää

TAF: ETOU 211204Z 2112/2218 VRB06KT 9999 SKC QNH3045INS TX15/2114Z TN00/2205Z

Säähavainnot ja -ennusteet yli 4000 lentoasemalta (METAR- ja TAF-raportit).

Käytössä olevat sääasemat on merkitty karttaan keltaisilla ja punaisilla pisteillä.

Aseta hiiri pisteen päälle nähdäksesi sääaseman nimen.

Klikkaa sitten nähdäksesi säähavainnot ja -ennusteet.

Kartan vaihtaminen: klikkaa mustalla rastilla varustettuja vihreitä pisteitä, niin voit zoomata sisään; viivalla varustettua vihreää pistettä, niin voit zoomata ulos tai vihreitä nuolia, niin pääset viereisille kartoille.


METAR-TAF: